Time;durP1;ratioP1;P1;durP2;ratioP2;P2;SDS_P1;SDS_P2;PMS_P1;PMS_P2;Temp;Humidity;BMP_temperature;BMP_pressure;BME280_temperature;BME280_humidity;BME280_pressure;Samples;Min_cycle;Max_cycle;Signal;HPM_P1;HPM_P2
2022/06/02 00:00:59;;;;;;;;;;;;;;;26.18;54.39;98758.63;2079753;28;19932;-56
2022/06/02 00:02:05;;;;;;;;;;;;;;;26.17;54.61;98758.91;2080929;28;19929;-52
2022/06/02 00:03:18;;;;;;;;;;;;;;;26.15;54.19;98761.03;2074080;28;20433;-55
2022/06/02 00:04:24;;;;;;;;;;;;;;;26.15;54.53;98755.59;2080205;28;20410;-53
2022/06/02 00:05:29;;;;;;;;;;;;;;;26.16;54.22;98757.25;2080958;28;19936;-53
2022/06/02 00:06:38;;;;;;;;;;;;;;;26.16;54.82;98758.09;2081281;28;20837;-52
2022/06/02 00:07:49;;;;;;;;;;;;;;;26.17;54.74;98764.34;2081775;28;19925;-55
2022/06/02 00:09:00;;;;;;;;;;;;;;;26.16;54.44;98768.97;2077100;28;19980;-55
2022/06/02 00:10:04;;;;;;;;;;;;;;;26.17;54.74;98758.91;2079460;28;19935;-53
2022/06/02 00:11:10;;;;;;;;;;;;;;;26.16;54.66;98762.69;2081379;28;20885;-54
2022/06/02 00:12:13;;;;;;;;;;;;;;;26.16;54.65;98765.41;2080331;28;19955;-56
2022/06/02 00:13:26;;;;;;;;;;;;;;;26.16;55.18;98759.97;2080044;28;20390;-54
2022/06/02 00:14:33;;;;;;;;;;;;;;;26.15;55.00;98763.75;2078715;28;19929;-55
2022/06/02 00:15:38;;;;;;;;;;;;;;;26.14;54.95;98762.94;2079118;28;19934;-55
2022/06/02 00:16:46;;;;;;;;;;;;;;;26.14;55.22;98753.97;2079307;28;19928;-53
2022/06/02 00:17:50;;;;;;;;;;;;;;;26.14;54.93;98764.84;2084276;28;20359;-54
2022/06/02 00:18:53;;;;;;;;;;;;;;;26.12;55.05;98762.38;2082386;28;19928;-55
2022/06/02 00:19:58;;;;;;;;;;;;;;;26.14;55.25;98760.22;2079642;28;19951;-55
2022/06/02 00:21:01;;;;;;;;;;;;;;;26.15;55.02;98766.47;2079805;28;19933;-56
2022/06/02 00:22:07;;;;;;;;;;;;;;;26.14;55.03;98762.94;2077158;28;19978;-55
2022/06/02 00:23:27;;;;;;;;;;;;;;;26.13;54.93;98772.16;2079208;28;19936;-55
2022/06/02 00:24:34;;;;;;;;;;;;;;;26.13;54.99;98757.75;2078502;28;19935;-55
2022/06/02 00:25:39;;;;;;;;;;;;;;;26.12;55.22;98762.38;2078941;28;19929;-53
2022/06/02 00:26:56;;;;;;;;;;;;;;;26.13;55.08;98761.28;2081682;28;19940;-56
2022/06/02 00:28:01;;;;;;;;;;;;;;;26.13;55.16;98755.84;2079378;28;19933;-52
2022/06/02 00:29:11;;;;;;;;;;;;;;;26.14;55.00;98765.66;2079220;28;19974;-53
2022/06/02 00:30:17;;;;;;;;;;;;;;;26.13;55.47;98768.63;2079759;28;20556;-56
2022/06/02 00:31:27;;;;;;;;;;;;;;;26.15;55.29;98758.31;2080462;28;19929;-53
2022/06/02 00:32:34;;;;;;;;;;;;;;;26.13;54.78;98761.28;2079733;28;20088;-55
2022/06/02 00:33:39;;;;;;;;;;;;;;;26.14;54.88;98752.06;2078373;28;19933;-56
2022/06/02 00:34:43;;;;;;;;;;;;;;;26.13;55.02;98752.31;2080436;28;19928;-55
2022/06/02 00:35:51;;;;;;;;;;;;;;;26.14;55.26;98757.50;2079247;28;19978;-55
2022/06/02 00:37:00;;;;;;;;;;;;;;;26.13;55.38;98755.03;2078943;28;19929;-55
2022/06/02 00:38:03;;;;;;;;;;;;;;;26.13;55.34;98755.84;2079690;28;20522;-55
2022/06/02 00:39:04;;;;;;;;;;;;;;;26.14;55.06;98752.06;2078985;28;19929;-54
2022/06/02 00:40:07;;;;;;;;;;;;;;;26.12;55.02;98750.69;2079734;28;19929;-55
2022/06/02 00:41:14;;;;;;;;;;;;;;;26.13;55.20;98750.41;2081817;28;19935;-57
2022/06/02 00:42:29;;;;;;;;;;;;;;;26.13;55.13;98752.31;2078855;28;19928;-54
2022/06/02 00:43:36;;;;;;;;;;;;;;;26.12;54.98;98750.69;2080796;28;19947;-54
2022/06/02 00:44:39;;;;;;;;;;;;;;;26.14;54.96;98754.78;2082585;28;19928;-56
2022/06/02 00:45:41;;;;;;;;;;;;;;;26.12;54.92;98756.94;2082167;28;19971;-54
2022/06/02 00:46:59;;;;;;;;;;;;;;;26.14;54.68;98756.69;2079730;28;19936;-55
2022/06/02 00:48:11;;;;;;;;;;;;;;;26.13;54.92;98755.84;2077647;28;19933;-57
2022/06/02 00:49:15;;;;;;;;;;;;;;;26.13;54.58;98755.03;2081335;28;20292;-56
2022/06/02 00:50:25;;;;;;;;;;;;;;;26.13;54.65;98747.69;2085240;28;19929;-58
2022/06/02 00:51:35;;;;;;;;;;;;;;;26.11;54.49;98746.31;2079900;28;20064;-53
2022/06/02 00:52:41;;;;;;;;;;;;;;;26.12;54.76;98747.97;2082906;28;19928;-54
2022/06/02 00:57:30;;;;;;;;;;;;;;;26.11;54.37;98746.31;2079118;28;19936;-56
2022/06/02 00:57:58;;;;;;;;;;;;;;;26.15;54.36;98751.00;2083267;28;19928;-56
2022/06/02 00:59:05;;;;;;;;;;;;;;;26.13;54.57;98750.41;2084370;28;19928;-54
2022/06/02 01:00:08;;;;;;;;;;;;;;;26.13;54.51;98753.13;2081132;28;19933;-57
2022/06/02 01:01:12;;;;;;;;;;;;;;;26.14;55.10;98752.06;2080984;28;19958;-55
2022/06/02 01:02:13;;;;;;;;;;;;;;;26.12;54.81;98745.25;2075333;28;19961;-56
2022/06/02 01:03:17;;;;;;;;;;;;;;;26.13;54.52;98747.69;2080097;28;20047;-54
2022/06/02 01:04:18;;;;;;;;;;;;;;;26.14;54.24;98745.81;2078570;28;20434;-55
2022/06/02 01:05:30;;;;;;;;;;;;;;;26.15;54.66;98752.91;2077942;28;19933;-55
2022/06/02 01:06:49;;;;;;;;;;;;;;;26.15;54.53;98750.19;2080435;28;19964;-57
2022/06/02 01:07:54;;;;;;;;;;;;;;;26.15;54.89;98744.75;2079426;28;19929;-55
2022/06/02 01:09:08;;;;;;;;;;;;;;;26.15;54.76;98750.19;2080250;28;19933;-56
2022/06/02 01:10:18;;;;;;;;;;;;;;;26.15;54.79;98739.31;2081130;28;19929;-54
2022/06/02 01:11:26;;;;;;;;;;;;;;;26.13;54.85;98744.97;2081513;28;19929;-55
2022/06/02 01:12:41;;;;;;;;;;;;;;;26.13;54.82;98746.88;2080996;28;20957;-51
2022/06/02 01:13:57;;;;;;;;;;;;;;;26.12;54.73;98743.34;2080701;28;23507;-55
2022/06/02 01:15:04;;;;;;;;;;;;;;;26.11;55.30;98744.41;2078882;28;19933;-54
2022/06/02 01:16:10;;;;;;;;;;;;;;;26.11;54.98;98752.56;2080830;28;19976;-56
2022/06/02 01:17:15;;;;;;;;;;;;;;;26.12;55.35;98745.25;2084468;28;19929;-56
2022/06/02 01:18:26;;;;;;;;;;;;;;;26.12;55.06;98743.34;2080957;28;20682;-56
2022/06/02 01:19:44;;;;;;;;;;;;;;;26.13;54.68;98741.44;2082962;28;20420;-55
2022/06/02 01:20:53;;;;;;;;;;;;;;;26.12;54.93;98740.63;2080273;28;19928;-55
2022/06/02 01:22:05;;;;;;;;;;;;;;;26.10;54.94;98734.59;2083684;28;20325;-55
2022/06/02 01:23:31;;;;;;;;;;;;;;;26.10;54.88;98740.03;2077260;28;19928;-56
2022/06/02 01:24:47;;;;;;;;;;;;;;;26.12;54.60;98745.25;2071299;28;19935;-56
2022/06/02 01:26:03;;;;;;;;;;;;;;;26.11;54.83;98738.16;2081058;28;19986;-55
2022/06/02 01:27:19;;;;;;;;;;;;;;;26.10;54.79;98733.78;2080134;28;20318;-54
2022/06/02 01:28:31;;;;;;;;;;;;;;;26.10;54.40;98740.03;2083314;28;19981;-56
2022/06/02 01:29:49;;;;;;;;;;;;;;;26.10;54.72;98742.75;2083228;28;21097;-56
2022/06/02 01:30:59;;;;;;;;;;;;;;;26.12;54.99;98737.09;2075436;28;19942;-55
2022/06/02 01:32:03;;;;;;;;;;;;;;;26.10;54.52;98737.31;2077914;28;19928;-54
2022/06/02 01:33:10;;;;;;;;;;;;;;;26.11;55.07;98733.56;2077093;28;19928;-55
2022/06/02 01:34:16;;;;;;;;;;;;;;;26.13;54.59;98736.81;2081025;28;20280;-55
2022/06/02 01:35:22;;;;;;;;;;;;;;;26.14;54.27;98737.66;2077651;28;19935;-56
2022/06/02 01:36:26;;;;;;;;;;;;;;;26.13;54.66;98742.25;2083790;28;19929;-52
2022/06/02 01:37:32;;;;;;;;;;;;;;;26.12;55.08;98740.63;2080861;28;20527;-55
2022/06/02 01:38:38;;;;;;;;;;;;;;;26.12;55.04;98742.53;2080976;28;19929;-58
2022/06/02 01:39:44;;;;;;;;;;;;;;;26.10;55.04;98742.75;2082890;28;19928;-56
2022/06/02 01:40:52;;;;;;;;;;;;;;;26.10;54.99;98736.50;2083561;28;20070;-57
2022/06/02 01:41:58;;;;;;;;;;;;;;;26.11;55.31;98739.00;2081127;28;20586;-55
2022/06/02 01:43:04;;;;;;;;;;;;;;;26.12;55.30;98726.22;2081038;28;19933;-54
2022/06/02 01:44:09;;;;;;;;;;;;;;;26.12;55.06;98728.94;2084553;28;19960;-55
2022/06/02 01:45:16;;;;;;;;;;;;;;;26.12;55.12;98728.94;2077813;28;20015;-56
2022/06/02 01:46:25;;;;;;;;;;;;;;;26.10;55.11;98731.88;2083320;28;19936;-52
2022/06/02 01:47:32;;;;;;;;;;;;;;;26.10;55.15;98734.59;2082713;28;20413;-55
2022/06/02 01:48:37;;;;;;;;;;;;;;;26.11;55.14;98732.72;2082873;28;19932;-54
2022/06/02 01:49:45;;;;;;;;;;;;;;;26.10;55.22;98733.78;2083938;28;19983;-57
2022/06/02 01:50:52;;;;;;;;;;;;;;;26.10;54.73;98731.88;2079439;28;19929;-55
2022/06/02 01:51:59;;;;;;;;;;;;;;;26.08;54.79;98731.34;2080049;28;20390;-56
2022/06/02 01:53:04;;;;;;;;;;;;;;;26.10;55.20;98731.06;2078788;28;20314;-57
2022/06/02 01:54:11;;;;;;;;;;;;;;;26.12;55.19;98723.50;2083762;28;19933;-53
2022/06/02 01:55:21;;;;;;;;;;;;;;;26.12;55.16;98721.59;2077735;28;19940;-57
2022/06/02 01:56:30;;;;;;;;;;;;;;;26.12;54.63;98739.81;2080398;28;19928;-57
2022/06/02 01:57:36;;;;;;;;;;;;;;;26.12;55.02;98740.63;2081026;28;20485;-57
2022/06/02 01:58:47;;;;;;;;;;;;;;;26.11;54.77;98735.44;2075331;28;19933;-56
2022/06/02 01:59:53;;;;;;;;;;;;;;;26.10;54.46;98736.50;2080256;28;19937;-53
2022/06/02 02:01:00;;;;;;;;;;;;;;;26.08;55.02;98737.59;2078155;28;20017;-54
2022/06/02 02:02:06;;;;;;;;;;;;;;;26.10;54.73;98737.31;2082866;28;19935;-56
2022/06/02 02:03:16;;;;;;;;;;;;;;;26.10;54.64;98733.78;2084405;28;20476;-56
2022/06/02 02:04:30;;;;;;;;;;;;;;;26.08;54.81;98734.88;2083194;28;20011;-55
2022/06/02 02:05:40;;;;;;;;;;;;;;;26.07;54.36;98729.66;2081620;28;20015;-54
2022/06/02 02:06:43;;;;;;;;;;;;;;;26.08;55.05;98740.31;2079024;28;20739;-52
2022/06/02 02:07:50;;;;;;;;;;;;;;;26.09;55.11;98741.13;2084526;28;20032;-54
2022/06/02 02:08:58;;;;;;;;;;;;;;;26.08;55.25;98737.59;2080191;28;19986;-55
2022/06/02 02:10:09;;;;;;;;;;;;;;;26.11;54.40;98738.16;2078927;28;19929;-56
2022/06/02 02:11:14;;;;;;;;;;;;;;;26.08;54.48;98742.22;2075972;28;19960;-53
2022/06/02 02:12:24;;;;;;;;;;;;;;;26.09;54.83;98741.13;2081718;28;20019;-55
2022/06/02 02:13:30;;;;;;;;;;;;;;;26.11;54.57;98749.03;2081515;28;19932;-56
2022/06/02 02:14:49;;;;;;;;;;;;;;;26.10;54.45;98747.38;2081799;28;20838;-55
2022/06/02 02:15:55;;;;;;;;;;;;;;;26.08;54.25;98740.31;2081651;28;19928;-56
2022/06/02 02:17:04;;;;;;;;;;;;;;;26.09;54.79;98741.13;2083846;28;20382;-55
2022/06/02 02:18:14;;;;;;;;;;;;;;;26.07;54.35;98741.38;2079188;28;19951;-52
2022/06/02 02:19:23;;;;;;;;;;;;;;;26.07;54.94;98746.78;2065875;28;19981;-53
2022/06/02 02:20:28;;;;;;;;;;;;;;;26.06;54.70;98739.72;2078161;28;19940;-55
2022/06/02 02:21:34;;;;;;;;;;;;;;;26.07;54.86;98741.38;2076753;28;19935;-53
2022/06/02 02:22:37;;;;;;;;;;;;;;;26.06;54.57;98731.56;2080705;28;19928;-56
2022/06/02 02:23:44;;;;;;;;;;;;;;;26.05;54.98;98740.00;2083579;28;20305;-55
2022/06/02 02:24:53;;;;;;;;;;;;;;;26.07;54.86;98735.09;2071298;28;19979;-58
2022/06/02 02:26:00;;;;;;;;;;;;;;;26.08;55.13;98736.78;2082890;28;19929;-54
2022/06/02 02:27:04;;;;;;;;;;;;;;;26.07;54.66;98744.06;2077199;28;19928;-58
2022/06/02 02:28:12;;;;;;;;;;;;;;;26.08;54.72;98744.94;2082657;28;20437;-57
2022/06/02 02:29:20;;;;;;;;;;;;;;;26.05;55.16;98748.97;2083135;28;19929;-55
2022/06/02 02:30:23;;;;;;;;;;;;;;;26.07;55.18;98748.69;2082079;28;19929;-55
2022/06/02 02:31:34;;;;;;;;;;;;;;;26.07;54.92;98743.25;2080428;28;19932;-57
2022/06/02 02:32:40;;;;;;;;;;;;;;;26.06;55.23;98747.88;2080497;28;20581;-52
2022/06/02 02:33:49;;;;;;;;;;;;;;;26.07;54.85;98749.50;2081182;28;19936;-56
2022/06/02 02:34:55;;;;;;;;;;;;;;;26.05;55.17;98750.88;2077755;28;19959;-57
2022/06/02 02:36:01;;;;;;;;;;;;;;;26.06;55.48;98745.16;2082987;28;19936;-55
2022/06/02 02:37:07;;;;;;;;;;;;;;;26.06;55.49;98744.34;2079257;28;19936;-53
2022/06/02 02:38:11;;;;;;;;;;;;;;;26.05;55.28;98742.72;2078864;28;20348;-54
2022/06/02 02:39:18;;;;;;;;;;;;;;;26.04;55.02;98744.59;2081610;28;19933;-57
2022/06/02 02:40:24;;;;;;;;;;;;;;;26.05;55.52;98743.53;2081435;28;19929;-54
2022/06/02 02:41:29;;;;;;;;;;;;;;;26.05;55.25;98745.44;2082084;28;19937;-55
2022/06/02 02:42:33;;;;;;;;;;;;;;;26.05;55.42;98746.25;2081266;28;20934;-57
2022/06/02 02:43:39;;;;;;;;;;;;;;;26.05;55.48;98748.97;2081840;28;20950;-55
2022/06/02 02:44:43;;;;;;;;;;;;;;;26.04;55.20;98750.03;2084739;28;20059;-56
2022/06/02 02:45:48;;;;;;;;;;;;;;;26.06;55.09;98749.78;2081287;28;19928;-55
2022/06/02 02:46:53;;;;;;;;;;;;;;;26.03;55.23;98742.94;2079638;28;19933;-57
2022/06/02 02:47:58;;;;;;;;;;;;;;;26.03;55.15;98748.38;2080446;28;19935;-55
2022/06/02 02:49:03;;;;;;;;;;;;;;;26.04;55.28;98747.31;2082159;28;19929;-56
2022/06/02 02:50:09;;;;;;;;;;;;;;;26.03;55.23;98750.28;2076145;28;20002;-58
2022/06/02 02:51:14;;;;;;;;;;;;;;;26.02;55.40;98751.34;2080393;28;19932;-57
2022/06/02 02:52:19;;;;;;;;;;;;;;;26.03;55.31;98753.81;2081300;28;19935;-56
2022/06/02 02:53:22;;;;;;;;;;;;;;;26.03;55.81;98751.09;2084341;28;20394;-57
2022/06/02 02:54:26;;;;;;;;;;;;;;;26.02;55.65;98749.47;2083562;28;20363;-58
2022/06/02 02:55:30;;;;;;;;;;;;;;;26.05;55.54;98748.16;2076529;28;19929;-57
2022/06/02 02:56:34;;;;;;;;;;;;;;;26.03;55.30;98748.38;2081912;28;20411;-58
2022/06/02 02:57:43;;;;;;;;;;;;;;;26.02;55.53;98741.31;2084334;28;20019;-57
2022/06/02 02:58:46;;;;;;;;;;;;;;;26.01;55.36;98755.97;2076354;28;19929;-58
2022/06/02 02:59:51;;;;;;;;;;;;;;;26.01;55.86;98745.09;2077709;28;19929;-58
2022/06/02 03:00:59;;;;;;;;;;;;;;;26.02;55.75;98749.47;2080190;28;19932;-58
2022/06/02 03:02:06;;;;;;;;;;;;;;;26.03;55.95;98747.56;2080392;28;19982;-57
2022/06/02 03:03:09;;;;;;;;;;;;;;;26.01;55.58;98747.81;2078441;28;19982;-57
2022/06/02 03:04:20;;;;;;;;;;;;;;;26.00;55.18;98748.88;2072146;28;19968;-56
2022/06/02 03:05:24;;;;;;;;;;;;;;;26.02;55.32;98749.47;2078516;28;19936;-56
2022/06/02 03:06:27;;;;;;;;;;;;;;;26.01;55.26;98750.53;2079385;28;20512;-55
2022/06/02 03:07:29;;;;;;;;;;;;;;;26.01;55.79;98750.53;2079205;28;19932;-54
2022/06/02 03:08:35;;;;;;;;;;;;;;;26.01;55.81;98747.00;2072200;28;19928;-55
2022/06/02 03:09:40;;;;;;;;;;;;;;;26.02;55.95;98751.34;2081255;28;20771;-57
2022/06/02 03:10:44;;;;;;;;;;;;;;;26.00;55.28;98753.50;2078851;28;20330;-58
2022/06/02 03:11:59;;;;;;;;;;;;;;;26.01;55.33;98755.97;2075534;28;19936;-55
2022/06/02 03:13:06;;;;;;;;;;;;;;;26.00;55.91;98748.88;2079715;28;21213;-58
2022/06/02 03:14:15;;;;;;;;;;;;;;;26.01;56.01;98750.53;2080935;28;20002;-52
2022/06/02 03:15:20;;;;;;;;;;;;;;;26.00;55.56;98750.78;2079366;28;20755;-57
2022/06/02 03:16:22;;;;;;;;;;;;;;;26.00;55.54;98748.06;2080609;28;20662;-57
2022/06/02 03:17:29;;;;;;;;;;;;;;;26.00;56.00;98754.31;2079002;28;19960;-55
2022/06/02 03:18:39;;;;;;;;;;;;;;;25.99;56.04;98749.97;2080109;28;20924;-55
2022/06/02 03:19:46;;;;;;;;;;;;;;;26.00;55.45;98753.50;2075863;28;19933;-54
2022/06/02 03:20:53;;;;;;;;;;;;;;;26.01;55.70;98757.84;2075372;28;19940;-55
2022/06/02 03:21:56;;;;;;;;;;;;;;;26.00;55.94;98748.88;2080705;28;20002;-58
2022/06/02 03:23:02;;;;;;;;;;;;;;;26.00;55.76;98757.03;2082678;28;19929;-56
2022/06/02 03:24:21;;;;;;;;;;;;;;;26.01;55.40;98752.41;2079165;28;19928;-54
2022/06/02 03:25:29;;;;;;;;;;;;;;;25.97;55.88;98749.38;2078897;28;19933;-55
2022/06/02 03:26:36;;;;;;;;;;;;;;;26.01;56.19;98747.81;2078991;28;19932;-52
2022/06/02 03:27:39;;;;;;;;;;;;;;;25.99;55.78;98752.69;2081452;28;19928;-54
2022/06/02 03:28:47;;;;;;;;;;;;;;;26.00;55.74;98758.94;2080156;28;19933;-55
2022/06/02 03:29:59;;;;;;;;;;;;;;;26.00;55.47;98748.06;2072979;28;19932;-53
2022/06/02 03:31:04;;;;;;;;;;;;;;;25.98;55.69;98753.75;2078351;28;19928;-50
2022/06/02 03:32:10;;;;;;;;;;;;;;;25.97;55.79;98754.00;2079973;28;20397;-55
2022/06/02 03:33:21;;;;;;;;;;;;;;;25.97;55.94;98754.81;2080373;28;20336;-53
2022/06/02 03:34:25;;;;;;;;;;;;;;;25.97;55.88;98754.00;2080240;28;19936;-56
2022/06/02 03:35:32;;;;;;;;;;;;;;;25.95;55.65;98756.97;2080510;28;20467;-55
2022/06/02 03:36:42;;;;;;;;;;;;;;;25.98;56.05;98761.06;2083185;28;20407;-55
2022/06/02 03:37:51;;;;;;;;;;;;;;;25.98;55.54;98756.47;2078123;28;19936;-54
2022/06/02 03:38:58;;;;;;;;;;;;;;;25.96;55.82;98758.59;2076739;28;19939;-55
2022/06/02 03:40:08;;;;;;;;;;;;;;;25.96;55.72;98758.59;2081334;28;19937;-54
2022/06/02 03:41:22;;;;;;;;;;;;;;;25.97;55.81;98765.69;2079244;28;21045;-52
2022/06/02 03:42:27;;;;;;;;;;;;;;;25.98;55.86;98761.06;2078446;28;19932;-52
2022/06/02 03:43:34;;;;;;;;;;;;;;;25.98;55.59;98761.06;2082376;28;19936;-53
2022/06/02 03:44:44;;;;;;;;;;;;;;;25.96;55.82;98764.03;2081871;28;19981;-54
2022/06/02 03:45:52;;;;;;;;;;;;;;;25.96;55.29;98774.91;2082637;28;20838;-52
2022/06/02 03:47:00;;;;;;;;;;;;;;;25.96;55.81;98769.47;2081306;28;19928;-54
2022/06/02 03:48:16;;;;;;;;;;;;;;;25.96;55.73;98764.03;2079053;28;20633;-53
2022/06/02 03:49:39;;;;;;;;;;;;;;;25.95;55.75;98762.41;2079179;28;19928;-53
2022/06/02 03:50:48;;;;;;;;;;;;;;;25.95;55.91;98765.13;2075168;28;20514;-55
2022/06/02 03:51:58;;;;;;;;;;;;;;;25.97;55.69;98767.59;2078278;28;20363;-54
2022/06/02 03:53:07;;;;;;;;;;;;;;;25.97;55.66;98776.56;2079374;28;19935;-56
2022/06/02 03:54:32;;;;;;;;;;;;;;;25.95;55.69;98773.25;2079462;28;20584;-55
2022/06/02 03:55:40;;;;;;;;;;;;;;;25.93;55.75;98778.13;2078200;28;20726;-56
2022/06/02 03:56:56;;;;;;;;;;;;;;;25.95;55.82;98777.88;2076608;28;20047;-55
2022/06/02 03:58:06;;;;;;;;;;;;;;;25.94;55.65;98777.06;2059387;28;19931;-55
2022/06/02 03:59:18;;;;;;;;;;;;;;;25.95;55.81;98786.84;2075961;28;20410;-53
2022/06/02 04:00:23;;;;;;;;;;;;;;;25.96;55.68;98780.34;2075246;28;19936;-56
2022/06/02 04:01:25;;;;;;;;;;;;;;;25.95;55.94;98784.13;2080692;28;20735;-57
2022/06/02 04:02:30;;;;;;;;;;;;;;;25.95;55.73;98784.13;2078062;28;19928;-55
2022/06/02 04:03:37;;;;;;;;;;;;;;;25.96;55.75;98791.22;2078665;28;19972;-54
2022/06/02 04:04:41;;;;;;;;;;;;;;;25.96;55.73;98791.22;2076009;28;20064;-54
2022/06/02 04:05:49;;;;;;;;;;;;;;;25.97;55.86;98789.34;2082530;28;19932;-57
2022/06/02 04:07:08;;;;;;;;;;;;;;;25.95;55.75;98795.00;2083060;28;19932;-54
2022/06/02 04:08:18;;;;;;;;;;;;;;;25.93;55.20;98797.13;2080467;28;19971;-55
2022/06/02 04:09:32;;;;;;;;;;;;;;;25.96;56.05;98790.38;2081162;28;19928;-55
2022/06/02 04:10:36;;;;;;;;;;;;;;;25.94;55.76;98793.38;2078251;28;19936;-56
2022/06/02 04:13:38;;;;;;;;;;;;;;;25.95;55.27;98799.63;2084301;28;19933;-55
2022/06/02 04:14:43;;;;;;;;;;;;;;;25.95;55.60;98797.72;2079584;28;19928;-55
2022/06/02 04:15:53;;;;;;;;;;;;;;;25.95;55.34;98805.06;2082854;28;20474;-56
2022/06/02 04:16:57;;;;;;;;;;;;;;;25.95;55.89;98805.88;2082631;28;19928;-53
2022/06/02 04:18:03;;;;;;;;;;;;;;;25.95;55.74;98811.31;2081819;28;19937;-51
2022/06/02 04:20:43;;;;;;;;;;;;;;;25.93;55.62;98797.13;2075743;28;19932;-54
2022/06/02 04:21:49;;;;;;;;;;;;;;;25.93;56.08;98804.47;2080526;28;19928;-55
2022/06/02 04:22:58;;;;;;;;;;;;;;;25.96;55.47;98807.50;2082878;28;20382;-55
2022/06/02 04:24:07;;;;;;;;;;;;;;;25.94;55.45;98806.97;2078096;28;19934;-55
2022/06/02 04:25:17;;;;;;;;;;;;;;;25.94;55.63;98804.25;2080830;28;19936;-56
2022/06/02 04:26:40;;;;;;;;;;;;;;;25.93;56.07;98809.91;2081854;28;19932;-55
2022/06/02 04:27:44;;;;;;;;;;;;;;;25.93;55.88;98810.72;2073796;28;19939;-55
2022/06/02 04:28:51;;;;;;;;;;;;;;;25.93;55.57;98813.44;2083875;28;19928;-56
2022/06/02 04:30:01;;;;;;;;;;;;;;;25.95;56.09;98815.94;2076757;28;20904;-54
2022/06/02 04:31:09;;;;;;;;;;;;;;;25.95;55.73;98816.75;2082367;28;19928;-53
2022/06/02 04:32:16;;;;;;;;;;;;;;;25.94;55.37;98814.28;2081973;28;19959;-54
2022/06/02 04:33:23;;;;;;;;;;;;;;;25.95;55.22;98815.94;2083338;28;19928;-55
2022/06/02 04:34:31;;;;;;;;;;;;;;;25.94;55.34;98817.00;2080846;28;19936;-54
2022/06/02 04:35:39;;;;;;;;;;;;;;;25.94;55.68;98815.09;2080539;28;20333;-54
2022/06/02 04:36:43;;;;;;;;;;;;;;;25.94;55.56;98820.53;2084459;28;20366;-55
2022/06/02 04:37:51;;;;;;;;;;;;;;;25.92;55.90;98817.25;2081685;28;19951;-54
2022/06/02 04:38:56;;;;;;;;;;;;;;;25.94;56.19;98825.97;2078342;28;19956;-54
2022/06/02 04:40:03;;;;;;;;;;;;;;;25.93;55.89;98824.31;2081771;28;20006;-54
2022/06/02 04:41:10;;;;;;;;;;;;;;;25.93;55.76;98820.78;2083325;28;19928;-56
2022/06/02 04:42:17;;;;;;;;;;;;;;;25.91;55.70;98823.75;2079267;28;19932;-55
2022/06/02 04:43:22;;;;;;;;;;;;;;;25.91;56.10;98823.75;2082006;28;19935;-55
2022/06/02 04:44:25;;;;;;;;;;;;;;;25.92;55.71;98828.13;2081364;28;20980;-56
2022/06/02 04:45:32;;;;;;;;;;;;;;;25.91;55.63;98831.91;2076414;28;19939;-54
2022/06/02 04:46:39;;;;;;;;;;;;;;;25.92;55.97;98827.28;2076940;28;20606;-52
2022/06/02 04:47:50;;;;;;;;;;;;;;;25.92;55.48;98827.28;2083412;28;19929;-54
2022/06/02 04:48:55;;;;;;;;;;;;;;;25.92;55.88;98827.28;2080948;28;19928;-56
2022/06/02 04:49:59;;;;;;;;;;;;;;;25.93;55.47;98829.75;2077950;28;19932;-57
2022/06/02 04:51:03;;;;;;;;;;;;;;;25.92;55.45;98827.28;2083851;28;20529;-54
2022/06/02 04:52:11;;;;;;;;;;;;;;;25.91;55.70;98825.63;2082427;28;19975;-55
2022/06/02 04:53:18;;;;;;;;;;;;;;;25.92;55.86;98827.28;2080673;28;21806;-55
2022/06/02 04:54:24;;;;;;;;;;;;;;;25.90;55.85;98821.28;2079838;28;20546;-56
2022/06/02 04:55:32;;;;;;;;;;;;;;;25.90;55.75;98819.38;2084684;28;20298;-53
2022/06/02 04:56:36;;;;;;;;;;;;;;;25.89;55.78;98822.34;2075737;28;20448;-56
2022/06/02 04:57:43;;;;;;;;;;;;;;;25.90;55.93;98824.81;2081977;28;19928;-56
2022/06/02 04:58:48;;;;;;;;;;;;;;;25.89;56.01;98830.50;2081007;28;20386;-55
2022/06/02 04:59:54;;;;;;;;;;;;;;;25.90;55.92;98824.81;2082143;28;20624;-57
2022/06/02 05:00:59;;;;;;;;;;;;;;;25.90;55.69;98826.72;2079089;28;20789;-55
2022/06/02 05:02:05;;;;;;;;;;;;;;;25.91;55.50;98828.34;2079669;28;19929;-56
2022/06/02 05:03:10;;;;;;;;;;;;;;;25.92;54.96;98825.41;2082814;28;19936;-55
2022/06/02 05:04:19;;;;;;;;;;;;;;;25.93;54.98;98826.22;2084099;28;20296;-54
2022/06/02 05:05:24;;;;;;;;;;;;;;;25.92;54.78;98832.72;2081504;28;19936;-53
2022/06/02 05:06:31;;;;;;;;;;;;;;;25.93;54.67;98829.75;2079540;28;20307;-55
2022/06/02 05:07:39;;;;;;;;;;;;;;;25.94;54.70;98836.84;2078144;28;20037;-56
2022/06/02 05:08:50;;;;;;;;;;;;;;;25.92;55.36;98830.84;2082462;28;19987;-55
2022/06/02 05:09:55;;;;;;;;;;;;;;;25.90;55.63;98835.69;2086058;28;19976;-56
2022/06/02 05:11:00;;;;;;;;;;;;;;;25.90;55.30;98832.97;2085484;28;19936;-55
2022/06/02 05:12:07;;;;;;;;;;;;;;;25.91;55.56;98828.34;2081104;28;19929;-55
2022/06/02 05:13:13;;;;;;;;;;;;;;;25.91;55.11;98831.91;2075782;28;19963;-55
2022/06/02 05:14:25;;;;;;;;;;;;;;;25.91;55.39;98836.50;2079772;28;19939;-56
2022/06/02 05:15:35;;;;;;;;;;;;;;;25.90;55.25;98834.88;2079628;28;20314;-56
2022/06/02 05:16:41;;;;;;;;;;;;;;;25.91;55.32;98839.22;2084047;28;19937;-57
2022/06/02 05:18:00;;;;;;;;;;;;;;;25.88;55.40;98834.28;2082183;28;20001;-54
2022/06/02 05:19:09;;;;;;;;;;;;;;;25.89;55.65;98838.66;2075115;28;19935;-56
2022/06/02 05:20:18;;;;;;;;;;;;;;;25.89;55.69;98838.66;2081953;28;19932;-55
2022/06/02 05:21:31;;;;;;;;;;;;;;;25.91;55.58;98841.94;2081656;28;19928;-56
2022/06/02 05:22:48;;;;;;;;;;;;;;;25.89;54.97;98839.47;2082238;28;19936;-56
2022/06/02 05:24:07;;;;;;;;;;;;;;;25.90;54.93;98834.88;2079524;28;19929;-55
2022/06/02 05:25:30;;;;;;;;;;;;;;;25.91;54.86;98836.50;2079636;28;19928;-53
2022/06/02 05:26:43;;;;;;;;;;;;;;;25.90;55.07;98832.97;2080384;28;19967;-54
2022/06/02 05:28:00;;;;;;;;;;;;;;;25.89;55.24;98835.94;2079728;28;20019;-55
2022/06/02 05:29:21;;;;;;;;;;;;;;;25.87;55.28;98836.19;2083339;28;19928;-53
2022/06/02 05:30:49;;;;;;;;;;;;;;;25.89;55.26;98842.19;2083051;28;19928;-54
2022/06/02 05:31:59;;;;;;;;;;;;;;;25.90;55.14;98841.13;2069442;28;19929;-55
2022/06/02 05:33:11;;;;;;;;;;;;;;;25.88;54.93;98837.00;2079942;28;19967;-54
2022/06/02 05:34:37;;;;;;;;;;;;;;;25.89;54.58;98847.63;2078512;28;19932;-55
2022/06/02 05:36:02;;;;;;;;;;;;;;;25.89;55.13;98835.94;2080841;28;19928;-56
2022/06/02 05:37:14;;;;;;;;;;;;;;;25.88;54.60;98835.09;2072714;28;19929;-54
2022/06/02 05:38:28;;;;;;;;;;;;;;;25.87;55.08;98838.91;2083382;28;19928;-55
2022/06/02 05:39:44;;;;;;;;;;;;;;;25.86;55.22;98839.97;2080180;28;19935;-55
2022/06/02 05:40:49;;;;;;;;;;;;;;;25.87;55.28;98841.63;2076934;28;20314;-52
2022/06/02 05:42:00;;;;;;;;;;;;;;;25.87;55.89;98838.91;2080428;28;19933;-56
2022/06/02 05:43:09;;;;;;;;;;;;;;;25.88;55.73;98840.53;2082922;28;20363;-56
2022/06/02 05:44:15;;;;;;;;;;;;;;;25.88;55.41;98839.72;2084264;28;19932;-56
2022/06/02 05:45:23;;;;;;;;;;;;;;;25.84;55.51;98833.97;2083900;28;19932;-55
2022/06/02 05:46:32;;;;;;;;;;;;;;;25.83;55.38;98829.59;2082429;28;21706;-55
2022/06/02 05:47:38;;;;;;;;;;;;;;;25.85;55.72;98833.72;2077907;28;20479;-55
2022/06/02 05:48:51;;;;;;;;;;;;;;;25.85;55.44;98835.59;2078612;28;20741;-53
2022/06/02 05:49:56;;;;;;;;;;;;;;;25.85;55.47;98835.59;2081021;28;19928;-53
2022/06/02 05:51:01;;;;;;;;;;;;;;;25.86;54.69;98826.38;2082416;28;20746;-57
2022/06/02 05:52:06;;;;;;;;;;;;;;;25.87;54.53;98830.75;2078372;28;19929;-56
2022/06/02 05:53:15;;;;;;;;;;;;;;;25.86;54.75;98829.09;2076830;28;20016;-54
2022/06/02 05:54:26;;;;;;;;;;;;;;;25.87;54.76;98824.50;2077585;28;19935;-55
2022/06/02 05:55:31;;;;;;;;;;;;;;;25.84;54.43;98826.63;2082908;28;20509;-57
2022/06/02 05:56:40;;;;;;;;;;;;;;;25.86;54.93;98823.66;2081939;28;21119;-55
2022/06/02 05:57:48;;;;;;;;;;;;;;;25.87;54.66;98833.47;2078229;28;19928;-57
2022/06/02 05:59:06;;;;;;;;;;;;;;;25.86;54.67;98829.09;2082976;28;19929;-57
2022/06/02 06:00:11;;;;;;;;;;;;;;;25.84;54.50;98831.25;2081706;28;22268;-53
2022/06/02 06:01:18;;;;;;;;;;;;;;;25.83;54.56;98829.59;2081730;28;19940;-53
2022/06/02 06:02:34;;;;;;;;;;;;;;;25.81;55.01;98831.69;2083670;28;21060;-56